Time;durP1;ratioP1;P1;durP2;ratioP2;P2;SDS_P1;SDS_P2;PMS_P1;PMS_P2;Temp;Humidity;BMP_temperature;BMP_pressure;BME280_temperature;BME280_humidity;BME280_pressure;Samples;Min_cycle;Max_cycle;Signal;HPM_P1;HPM_P2
2023/07/27 00:00:06;;;;;;;8.85;8.20;;;18.10;92.20;;;;;;5063896;28;20017;-82
2023/07/27 00:02:32;;;;;;;9.05;8.35;;;18.10;92.20;;;;;;5063263;28;20017;-82
2023/07/27 00:04:58;;;;;;;8.43;7.72;;;18.10;92.20;;;;;;5080425;28;20032;-82
2023/07/27 00:07:26;;;;;;;4.22;3.83;;;18.20;92.20;;;;;;5077599;28;20037;-82
2023/07/27 00:09:52;;;;;;;3.92;3.63;;;18.10;92.30;;;;;;5060460;28;20033;-82
2023/07/27 00:12:18;;;;;;;4.75;4.35;;;18.10;92.20;;;;;;5022672;28;20079;-82
2023/07/27 00:14:44;;;;;;;6.93;4.22;;;18.10;92.20;;;;;;5055576;28;20033;-82
2023/07/27 00:17:09;;;;;;;4.85;4.45;;;18.10;92.30;;;;;;5038005;28;20477;-82
2023/07/27 00:19:35;;;;;;;4.55;4.15;;;18.10;92.30;;;;;;5021697;28;20067;-82
2023/07/27 00:22:01;;;;;;;4.40;4.07;;;18.10;92.20;;;;;;5038253;28;20040;-81
2023/07/27 00:24:26;;;;;;;5.30;4.80;;;18.10;92.20;;;;;;5037948;28;20033;-82
2023/07/27 00:26:52;;;;;;;5.18;4.68;;;18.20;92.10;;;;;;5038099;28;20021;-82
2023/07/27 00:29:19;;;;;;;5.18;4.78;;;18.10;92.00;;;;;;5021972;28;20043;-82
2023/07/27 00:31:45;;;;;;;5.80;5.05;;;18.20;91.90;;;;;;5054712;28;20021;-82
2023/07/27 00:34:10;;;;;;;5.57;5.10;;;18.20;92.20;;;;;;5054001;28;20032;-82
2023/07/27 00:36:36;;;;;;;6.10;5.60;;;18.20;92.00;;;;;;5037965;28;20384;-82
2023/07/27 00:39:02;;;;;;;6.43;5.85;;;18.20;92.00;;;;;;5054618;28;20380;-82
2023/07/27 00:41:28;;;;;;;6.22;5.72;;;18.20;92.00;;;;;;5021608;28;20079;-82
2023/07/27 00:43:53;;;;;;;5.88;5.28;;;18.20;92.00;;;;;;5054143;28;20112;-82
2023/07/27 00:46:19;;;;;;;6.45;5.95;;;18.20;92.00;;;;;;5037624;28;20037;-82
2023/07/27 00:48:45;;;;;;;6.78;6.28;;;18.20;91.90;;;;;;5021019;28;20124;-82
2023/07/27 00:51:11;;;;;;;6.50;5.85;;;18.30;91.90;;;;;;5037825;28;20025;-82
2023/07/27 00:53:37;;;;;;;6.88;6.28;;;18.30;91.90;;;;;;5055679;28;20607;-82
2023/07/27 00:56:04;;;;;;;7.30;6.70;;;18.30;92.00;;;;;;5037408;28;20065;-82
2023/07/27 00:58:31;;;;;;;7.63;6.97;;;18.30;92.00;;;;;;5053920;28;20544;-82
2023/07/27 01:00:59;;;;;;;8.52;7.78;;;18.30;92.10;;;;;;5021007;28;20385;-82
2023/07/27 01:03:25;;;;;;;9.00;8.23;;;18.30;92.30;;;;;;5053880;28;20037;-82
2023/07/27 01:05:51;;;;;;;8.65;8.00;;;18.30;92.40;;;;;;5020894;28;20063;-82
2023/07/27 01:08:17;;;;;;;7.95;7.22;;;18.30;92.50;;;;;;5053744;28;20067;-82
2023/07/27 01:10:57;;;;;;;8.07;7.38;;;18.30;92.50;;;;;;5020824;28;20028;-82
2023/07/27 01:13:28;;;;;;;8.60;7.82;;;18.30;92.70;;;;;;5053940;28;20021;-82
2023/07/27 01:16:03;;;;;;;8.25;7.55;;;18.30;92.80;;;;;;5053862;28;20575;-82
2023/07/27 01:18:55;;;;;;;8.25;7.63;;;18.30;92.90;;;;;;5072605;28;20054;-82
2023/07/27 01:21:30;;;;;;;7.97;7.15;;;18.30;93.00;;;;;;5057196;28;20380;-82
2023/07/27 01:24:02;;;;;;;7.75;7.07;;;18.30;93.10;;;;;;5075024;28;20032;-82
2023/07/27 01:27:00;;;;;;;8.63;7.95;;;18.20;93.20;;;;;;5056981;28;20096;-82
2023/07/27 01:29:26;;;;;;;8.65;7.85;;;18.20;93.40;;;;;;5056406;28;20070;-82
2023/07/27 01:31:53;;;;;;;8.68;7.93;;;18.20;93.50;;;;;;5056999;28;20021;-82
2023/07/27 01:34:32;;;;;;;8.85;8.15;;;18.20;93.70;;;;;;5057015;28;20029;-82
2023/07/27 01:37:08;;;;;;;8.98;8.15;;;18.10;93.70;;;;;;5056867;28;20021;-82
2023/07/27 01:39:39;;;;;;;8.93;8.10;;;18.20;93.90;;;;;;5057054;28;20028;-82
2023/07/27 01:42:05;;;;;;;;;;;18.10;94.00;;;;;;5058010;28;20024;-83
2023/07/27 01:44:33;;;;;;;8.80;8.05;;;18.10;94.10;;;;;;5057915;28;19905;-82
2023/07/27 01:47:00;;;;;;;8.38;7.65;;;18.00;94.20;;;;;;5058305;28;20024;-82
2023/07/27 01:49:27;;;;;;;8.20;7.32;;;18.00;94.40;;;;;;5062953;28;20020;-82
2023/07/27 01:51:54;;;;;;;8.80;8.00;;;18.00;94.60;;;;;;5081728;28;20012;-82
2023/07/27 01:54:20;;;;;;;8.75;8.05;;;17.90;94.60;;;;;;5081668;28;20039;-82
2023/07/27 01:56:46;;;;;;;7.38;6.68;;;17.90;94.80;;;;;;5098566;28;20028;-82
2023/07/27 01:59:12;;;;;;;8.75;7.90;;;17.90;94.90;;;;;;5088788;28;20029;-82
2023/07/27 02:01:38;;;;;;;7.72;6.93;;;17.90;95.10;;;;;;5023593;28;20036;-83
2023/07/27 02:04:05;;;;;;;7.85;7.05;;;17.90;95.20;;;;;;5039930;28;20578;-83
2023/07/27 02:06:31;;;;;;;8.07;7.28;;;17.90;95.30;;;;;;5074001;28;20036;-83
2023/07/27 02:08:57;;;;;;;8.60;7.72;;;17.90;95.40;;;;;;5056265;28;20081;-83
2023/07/27 02:11:26;;;;;;;8.40;7.70;;;17.90;95.60;;;;;;5022791;28;20028;-83
2023/07/27 02:14:04;;;;;;;8.35;7.47;;;17.80;95.70;;;;;;5056048;28;20017;-83
2023/07/27 02:16:45;;;;;;;8.35;7.57;;;17.80;95.80;;;;;;5073833;28;20025;-83
2023/07/27 02:19:16;;;;;;;8.10;7.32;;;17.80;95.90;;;;;;5056169;28;20400;-83
2023/07/27 02:21:44;;;;;;;7.55;6.93;;;17.80;96.00;;;;;;5039479;28;20037;-83
2023/07/27 02:24:10;;;;;;;8.02;7.25;;;17.70;96.00;;;;;;5055717;28;20379;-83
2023/07/27 02:26:36;;;;;;;8.70;7.80;;;17.70;96.20;;;;;;5039267;28;20078;-82
2023/07/27 02:29:22;;;;;;;7.75;7.05;;;17.70;96.20;;;;;;5055314;28;20110;-83
2023/07/27 02:31:47;;;;;;;8.63;7.72;;;17.70;96.60;;;;;;5055950;28;20024;-83
2023/07/27 02:34:13;;;;;;;8.85;7.95;;;17.70;96.40;;;;;;5039016;28;20392;-83
2023/07/27 02:36:39;;;;;;;9.77;8.77;;;17.70;96.40;;;;;;5055758;28;20372;-83
2023/07/27 02:39:04;;;;;;;9.35;8.43;;;17.70;96.50;;;;;;5022500;28;20024;-83
2023/07/27 02:41:30;;;;;;;8.98;8.15;;;17.70;96.70;;;;;;5036499;28;20082;-83
2023/07/27 02:43:55;;;;;;;8.82;7.90;;;17.70;96.70;;;;;;5073202;28;20033;-83
2023/07/27 02:46:21;;;;;;;8.95;8.15;;;17.70;96.70;;;;;;5055429;28;20055;-83
2023/07/27 02:48:47;;;;;;;9.30;8.50;;;17.60;96.80;;;;;;5039234;28;20115;-83
2023/07/27 02:51:12;;;;;;;9.40;8.40;;;17.60;96.80;;;;;;5055279;28;20124;-83
2023/07/27 02:53:38;;;;;;;9.40;8.50;;;17.60;96.90;;;;;;5038975;28;20021;-83
2023/07/27 02:56:05;;;;;;;9.48;8.57;;;17.60;96.90;;;;;;5055354;28;20464;-83
2023/07/27 02:58:31;;;;;;;9.05;8.15;;;17.60;97.00;;;;;;5055812;28;20353;-83
2023/07/27 03:01:04;;;;;;;8.98;8.18;;;17.60;97.00;;;;;;5073534;28;20029;-83
2023/07/27 03:03:30;;;;;;;9.63;8.52;;;17.60;97.10;;;;;;5072996;28;20456;-83
2023/07/27 03:06:00;;;;;;;9.73;8.63;;;17.60;97.10;;;;;;5055213;28;20037;-83
2023/07/27 03:08:26;;;;;;;9.48;8.57;;;17.60;97.20;;;;;;5055508;28;20021;-83
2023/07/27 03:10:52;;;;;;;8.98;8.07;;;17.60;97.30;;;;;;5055869;28;20461;-82
2023/07/27 03:13:18;;;;;;;9.45;8.27;;;17.60;97.30;;;;;;5073128;28;20039;-83
2023/07/27 03:15:44;;;;;;;10.02;8.60;;;17.60;97.30;;;;;;5038832;28;20028;-83
2023/07/27 03:18:09;;;;;;;9.80;8.80;;;17.60;97.40;;;;;;5022082;28;20052;-83
2023/07/27 03:20:42;;;;;;;9.45;8.55;;;17.60;97.40;;;;;;5055356;28;20043;-83
2023/07/27 03:23:08;;;;;;;8.35;7.55;;;17.60;97.50;;;;;;5055285;28;20035;-83
2023/07/27 03:25:35;;;;;;;9.18;8.15;;;17.60;97.40;;;;;;5039194;28;20025;-83
2023/07/27 03:28:02;;;;;;;9.85;8.88;;;17.60;97.40;;;;;;5055725;28;20101;-83
2023/07/27 03:30:28;;;;;;;9.18;8.32;;;17.60;97.40;;;;;;5055616;28;20047;-83
2023/07/27 03:32:54;;;;;;;9.77;8.82;;;17.60;97.40;;;;;;5055762;28;20465;-83
2023/07/27 03:35:19;;;;;;;9.38;8.48;;;17.60;97.40;;;;;;5074506;28;20072;-83
2023/07/27 03:37:45;;;;;;;9.52;8.60;;;17.60;97.40;;;;;;5058184;28;20032;-82
2023/07/27 03:40:11;;;;;;;9.60;8.70;;;17.60;97.40;;;;;;5097442;28;20025;-82
2023/07/27 03:42:37;;;;;;;10.18;9.18;;;17.60;97.40;;;;;;5047420;28;20096;-82
2023/07/27 03:45:03;;;;;;;9.90;8.90;;;17.60;97.40;;;;;;5097546;28;20028;-82
2023/07/27 03:47:29;;;;;;;10.35;9.27;;;17.60;97.40;;;;;;5095617;28;20041;-83
2023/07/27 03:49:54;;;;;;;10.00;9.00;;;17.60;97.40;;;;;;5039139;28;20036;-83
2023/07/27 03:52:20;;;;;;;10.45;9.45;;;17.60;97.40;;;;;;5040670;28;20033;-83
2023/07/27 03:54:46;;;;;;;11.75;9.68;;;17.60;97.50;;;;;;5042149;28;20549;-83
2023/07/27 03:57:11;;;;;;;10.13;9.10;;;17.60;97.70;;;;;;5058851;28;20029;-83
2023/07/27 03:59:37;;;;;;;9.73;8.82;;;17.60;97.50;;;;;;5076482;28;20388;-83
2023/07/27 04:02:03;;;;;;;9.73;8.82;;;17.50;97.50;;;;;;5058400;28;20032;-83
2023/07/27 04:04:28;;;;;;;10.45;9.52;;;17.50;97.50;;;;;;5042197;28;20052;-83
2023/07/27 04:06:54;;;;;;;10.23;9.20;;;17.50;97.50;;;;;;5042060;28;20439;-83
2023/07/27 04:09:20;;;;;;;10.23;8.20;;;17.50;97.60;;;;;;5041948;28;20032;-83
2023/07/27 04:11:45;;;;;;;8.98;8.07;;;17.50;97.60;;;;;;5041904;28;20029;-83
2023/07/27 04:14:11;;;;;;;9.70;8.70;;;17.40;97.70;;;;;;5058206;28;20025;-83
2023/07/27 04:16:37;;;;;;;8.75;7.85;;;17.50;97.80;;;;;;5058622;28;20071;-83
2023/07/27 04:19:02;;;;;;;9.57;8.68;;;17.50;97.80;;;;;;5024784;28;20099;-83
2023/07/27 04:21:31;;;;;;;8.27;7.43;;;17.50;97.80;;;;;;5025514;28;20384;-83
2023/07/27 04:23:57;;;;;;;9.60;7.88;;;17.40;97.90;;;;;;5024953;28;20486;-83
2023/07/27 04:26:22;;;;;;;7.93;7.15;;;17.40;97.90;;;;;;5041538;28;20111;-82
2023/07/27 04:28:48;;;;;;;7.65;6.95;;;17.40;97.90;;;;;;5041450;28;20032;-82
2023/07/27 04:31:14;;;;;;;7.47;6.78;;;17.40;97.90;;;;;;5041359;28;20032;-83
2023/07/27 04:33:39;;;;;;;8.68;7.70;;;17.40;98.00;;;;;;5040850;28;20056;-82
2023/07/27 04:36:05;;;;;;;7.75;7.05;;;17.40;98.00;;;;;;5041076;28;20033;-82
2023/07/27 04:38:31;;;;;;;7.90;7.20;;;17.40;98.10;;;;;;5024577;28;20491;-82
2023/07/27 04:40:57;;;;;;;7.32;6.72;;;17.40;98.10;;;;;;5040824;28;20028;-82
2023/07/27 04:43:23;;;;;;;8.70;6.70;;;17.40;98.10;;;;;;5057424;28;20037;-82
2023/07/27 04:45:48;;;;;;;8.20;7.28;;;17.30;98.10;;;;;;5040850;28;20103;-82
2023/07/27 04:48:14;;;;;;;7.28;6.68;;;17.40;98.10;;;;;;5040748;28;20029;-82
2023/07/27 04:50:40;;;;;;;7.78;7.07;;;17.40;98.20;;;;;;5057316;28;20028;-82
2023/07/27 04:53:05;;;;;;;7.85;7.03;;;17.40;98.20;;;;;;5040706;28;20051;-82
2023/07/27 04:55:31;;;;;;;7.45;6.75;;;17.40;98.20;;;;;;5056991;28;20028;-82
2023/07/27 04:57:57;;;;;;;7.95;7.25;;;17.40;98.30;;;;;;5075474;28;20432;-83
2023/07/27 05:00:22;;;;;;;7.25;6.55;;;17.40;98.30;;;;;;5040217;28;20039;-82
2023/07/27 05:02:48;;;;;;;7.65;6.80;;;17.40;98.40;;;;;;5040472;28;20127;-83
2023/07/27 05:05:14;;;;;;;7.82;7.13;;;17.40;98.40;;;;;;5040673;28;20040;-83
2023/07/27 05:07:39;;;;;;;7.28;6.65;;;17.40;98.40;;;;;;5057057;28;20020;-82
2023/07/27 05:10:05;;;;;;;7.30;6.60;;;17.40;98.40;;;;;;5057708;28;20040;-82
2023/07/27 05:12:32;;;;;;;7.18;6.57;;;17.40;98.50;;;;;;5040972;28;20028;-82
2023/07/27 05:14:59;;;;;;;6.18;5.63;;;17.40;98.60;;;;;;5058055;28;20035;-82
2023/07/27 05:17:24;;;;;;;7.78;7.07;;;17.40;98.50;;;;;;5054383;28;20497;-82
2023/07/27 05:19:53;;;;;;;7.22;6.53;;;17.40;98.60;;;;;;5021763;28;20043;-82
2023/07/27 05:22:19;;;;;;;6.95;6.35;;;17.50;98.60;;;;;;5037677;28;20056;-83
2023/07/27 05:24:45;;;;;;;7.00;6.38;;;17.50;98.70;;;;;;5064485;28;20013;-82
2023/07/27 05:27:10;;;;;;;7.38;6.78;;;17.50;98.70;;;;;;5078037;28;20122;-83
2023/07/27 05:29:36;;;;;;;6.63;6.03;;;17.50;98.80;;;;;;5061337;28;20009;-82
2023/07/27 05:32:02;;;;;;;6.50;5.90;;;17.50;98.80;;;;;;5061687;28;20096;-83
2023/07/27 05:34:28;;;;;;;6.78;6.18;;;17.50;98.90;;;;;;5077874;28;20025;-83
2023/07/27 05:36:53;;;;;;;5.78;5.28;;;17.50;98.90;;;;;;5061179;28;20033;-83
2023/07/27 05:39:19;;;;;;;6.53;6.03;;;17.50;98.90;;;;;;5053769;28;20495;-83
2023/07/27 05:41:45;;;;;;;4.60;4.20;;;17.60;99.00;;;;;;5037213;28;20037;-84
2023/07/27 05:44:10;;;;;;;2.83;2.28;;;17.60;99.00;;;;;;5053259;28;20029;-82
2023/07/27 05:46:36;;;;;;;3.55;2.55;;;17.60;99.10;;;;;;5054442;28;20479;-83
2023/07/27 05:49:04;;;;;;;2.60;2.40;;;17.60;99.10;;;;;;5020334;28;20441;-83
2023/07/27 05:51:29;;;;;;;2.72;2.08;;;17.60;99.10;;;;;;5054167;28;20029;-83
2023/07/27 05:53:55;;;;;;;2.60;2.40;;;17.60;99.20;;;;;;5053114;28;20040;-83
2023/07/27 05:56:24;;;;;;;3.13;2.08;;;17.60;99.20;;;;;;5053017;28;20355;-83
2023/07/27 05:58:49;;;;;;;2.58;2.15;;;17.70;99.20;;;;;;5036229;28;20427;-83
2023/07/27 06:01:16;;;;;;;2.67;2.08;;;17.70;99.20;;;;;;5036115;28;20021;-83
2023/07/27 06:03:42;;;;;;;3.38;2.47;;;17.70;99.20;;;;;;5053005;28;20025;-84
2023/07/27 06:06:07;;;;;;;3.10;2.33;;;17.70;99.20;;;;;;5054084;28;20029;-83
2023/07/27 06:08:33;;;;;;;2.60;1.80;;;17.70;99.30;;;;;;5052592;28;20029;-83
2023/07/27 06:11:06;;;;;;;3.33;1.98;;;17.70;99.30;;;;;;5019810;28;20033;-83
2023/07/27 06:13:32;;;;;;;2.78;2.15;;;17.70;99.30;;;;;;5036650;28;20033;-83
2023/07/27 06:15:58;;;;;;;2.05;1.80;;;17.70;99.40;;;;;;5052713;28;20029;-83
2023/07/27 06:18:24;;;;;;;2.50;1.90;;;17.70;99.40;;;;;;5035449;28;20064;-83
2023/07/27 06:20:49;;;;;;;2.03;1.60;;;17.70;99.50;;;;;;5052466;28;20033;-84
2023/07/27 06:23:15;;;;;;;2.08;1.80;;;17.80;99.50;;;;;;5035759;28;20060;-82
2023/07/27 06:25:44;;;;;;;2.25;1.60;;;17.80;99.50;;;;;;5053632;28;20052;-83
2023/07/27 06:28:10;;;;;;;1.83;1.67;;;17.80;99.60;;;;;;5052542;28;20135;-83
2023/07/27 06:30:37;;;;;;;1.60;1.50;;;17.80;99.60;;;;;;5053246;28;20083;-83
2023/07/27 06:33:03;;;;;;;2.03;1.50;;;17.80;99.60;;;;;;5035635;28;20032;-83
2023/07/27 06:35:28;;;;;;;2.28;1.40;;;17.80;99.70;;;;;;5035790;28;20056;-83
2023/07/27 06:37:54;;;;;;;1.50;1.40;;;17.90;99.70;;;;;;5052389;28;20064;-84
2023/07/27 06:40:20;;;;;;;1.63;1.10;;;17.90;99.70;;;;;;5052263;28;20528;-83
2023/07/27 06:42:46;;;;;;;1.75;1.27;;;17.90;99.70;;;;;;5019601;28;20037;-83
2023/07/27 06:45:11;;;;;;;1.77;1.27;;;17.90;99.80;;;;;;5035720;28;20025;-83
2023/07/27 06:47:37;;;;;;;1.40;1.30;;;17.90;99.80;;;;;;5052858;28;20033;-82
2023/07/27 06:50:03;;;;;;;1.40;1.30;;;17.90;99.90;;;;;;5035783;28;20040;-83
2023/07/27 06:52:29;;;;;;;1.25;1.15;;;17.90;99.90;;;;;;5052324;28;20025;-83
2023/07/27 06:54:55;;;;;;;1.40;1.10;;;18.00;99.90;;;;;;5035647;28;20120;-83
2023/07/27 06:57:27;;;;;;;1.35;1.25;;;18.00;99.90;;;;;;5035680;28;20033;-84
2023/07/27 06:59:53;;;;;;;1.45;1.08;;;18.00;99.90;;;;;;5052265;28;20033;-81
2023/07/27 07:02:19;;;;;;;1.35;1.05;;;18.00;99.90;;;;;;5052276;28;20432;-81
2023/07/27 07:04:45;;;;;;;1.40;1.30;;;18.10;99.90;;;;;;5036038;28;20057;-81
2023/07/27 07:07:11;;;;;;;1.35;1.10;;;18.10;99.90;;;;;;5036308;28;20497;-81
2023/07/27 07:09:38;;;;;;;2.03;1.20;;;18.10;99.90;;;;;;5058011;28;20025;-83
2023/07/27 07:12:04;;;;;;;1.23;1.02;;;18.10;99.90;;;;;;5066960;28;20029;-83
2023/07/27 07:14:31;;;;;;;0.82;0.82;;;18.10;99.90;;;;;;5057400;28;20079;-82
2023/07/27 07:16:57;;;;;;;1.58;1.17;;;18.20;99.90;;;;;;5079018;28;20089;-82
2023/07/27 07:19:23;;;;;;;0.93;0.90;;;18.20;99.90;;;;;;5080074;28;20033;-81
2023/07/27 07:21:48;;;;;;;0.90;0.90;;;18.20;99.90;;;;;;5062715;28;20059;-82
2023/07/27 07:24:14;;;;;;;1.80;1.00;;;18.20;99.90;;;;;;5080404;28;20072;-82
2023/07/27 07:26:40;;;;;;;1.00;1.00;;;18.20;99.90;;;;;;5067738;28;20024;-82
2023/07/27 07:29:07;;;;;;;0.75;0.75;;;18.20;99.90;;;;;;5026625;28;20051;-82
2023/07/27 07:31:33;;;;;;;0.70;0.68;;;18.20;99.90;;;;;;5059717;28;20089;-82
2023/07/27 07:33:58;;;;;;;0.70;0.63;;;18.20;99.90;;;;;;5059091;28;20533;-82
2023/07/27 07:36:25;;;;;;;0.77;0.75;;;18.30;99.90;;;;;;5025860;28;20111;-81
2023/07/27 07:38:54;;;;;;;0.80;0.80;;;18.30;99.90;;;;;;5058643;28;20033;-83
2023/07/27 07:41:19;;;;;;;0.98;0.85;;;18.30;99.90;;;;;;5058899;28;20134;-82
2023/07/27 07:43:45;;;;;;;1.30;1.20;;;18.40;99.90;;;;;;5058888;28;20107;-82
2023/07/27 07:46:11;;;;;;;0.93;0.90;;;18.40;99.90;;;;;;5058622;28;20168;-82
2023/07/27 07:48:38;;;;;;;2.00;1.05;;;18.50;99.90;;;;;;5058436;28;20066;-81
2023/07/27 07:51:08;;;;;;;0.90;0.90;;;18.50;99.90;;;;;;5042269;28;20029;-82
2023/07/27 07:53:34;;;;;;;;;;;18.60;99.90;;;;;;5042991;28;20035;-82
2023/07/27 07:56:00;;;;;;;1.25;0.98;;;18.70;99.90;;;;;;5058639;28;19909;-82
2023/07/27 07:58:28;;;;;;;2.75;1.10;;;18.70;99.90;;;;;;5025719;28;20040;-82
2023/07/27 08:00:54;;;;;;;0.98;0.90;;;18.70;99.90;;;;;;5058741;28;20086;-82
2023/07/27 08:03:19;;;;;;;0.90;0.88;;;18.70;99.90;;;;;;5041770;28;20041;-82
2023/07/27 08:05:45;;;;;;;1.20;0.98;;;18.70;99.90;;;;;;5058126;28;20411;-82
2023/07/27 08:08:11;;;;;;;0.90;0.90;;;18.80;99.90;;;;;;5058288;28;20043;-82
2023/07/27 08:10:42;;;;;;;0.93;0.70;;;18.80;99.90;;;;;;5058196;28;20056;-82
2023/07/27 08:13:07;;;;;;;1.02;0.80;;;18.80;99.90;;;;;;5041358;28;20068;-82
2023/07/27 08:15:33;;;;;;;0.98;0.88;;;18.90;99.90;;;;;;5024803;28;20067;-82
2023/07/27 08:17:59;;;;;;;1.20;0.95;;;18.90;99.90;;;;;;5057823;28;20057;-82
2023/07/27 08:20:25;;;;;;;1.15;0.90;;;18.90;99.90;;;;;;5041432;28;20028;-82
2023/07/27 08:22:51;;;;;;;0.90;0.85;;;18.90;99.90;;;;;;5058187;28;20033;-82
2023/07/27 08:25:17;;;;;;;0.98;0.80;;;19.00;99.90;;;;;;5057851;28;20033;-82
2023/07/27 08:27:43;;;;;;;1.25;0.98;;;19.00;99.90;;;;;;5057968;28;20182;-82
2023/07/27 08:30:09;;;;;;;0.80;0.80;;;19.00;99.90;;;;;;5058300;28;20614;-82
2023/07/27 08:32:34;;;;;;;1.13;1.00;;;19.10;99.90;;;;;;5041149;28;20115;-82
2023/07/27 08:35:00;;;;;;;1.00;0.90;;;19.10;99.90;;;;;;5024421;28;20123;-82
2023/07/27 08:37:26;;;;;;;0.95;0.85;;;19.10;99.90;;;;;;5075451;28;20127;-82
2023/07/27 08:39:51;;;;;;;1.42;0.98;;;19.20;99.90;;;;;;5075230;28;20094;-82
2023/07/27 08:42:19;;;;;;;1.20;1.10;;;19.20;99.90;;;;;;5057468;28;20029;-82
2023/07/27 08:44:45;;;;;;;0.90;0.90;;;19.20;99.90;;;;;;5075342;28;20352;-82
2023/07/27 08:47:11;;;;;;;1.17;1.02;;;19.20;99.90;;;;;;5075220;28;20025;-82
2023/07/27 08:49:38;;;;;;;1.05;0.90;;;19.20;99.90;;;;;;5075013;28;20443;-82
2023/07/27 08:52:04;;;;;;;0.80;0.80;;;19.20;99.90;;;;;;5056837;28;20023;-82
2023/07/27 08:54:30;;;;;;;1.38;1.00;;;19.20;99.90;;;;;;5056063;28;20047;-82
2023/07/27 08:56:56;;;;;;;1.48;0.90;;;19.20;99.90;;;;;;5056528;28;20020;-82
2023/07/27 08:59:24;;;;;;;2.30;1.00;;;19.30;99.90;;;;;;5040444;28;20119;-82
2023/07/27 09:01:53;;;;;;;1.20;0.90;;;19.30;99.90;;;;;;5056955;28;20083;-83
2023/07/27 09:04:18;;;;;;;1.00;0.93;;;19.30;99.90;;;;;;5080752;28;20025;-82
2023/07/27 09:06:48;;;;;;;1.30;1.20;;;19.40;99.90;;;;;;5064967;28;20081;-82
2023/07/27 09:09:25;;;;;;;1.77;1.02;;;19.40;99.90;;;;;;5080164;28;20012;-82
2023/07/27 09:11:54;;;;;;;1.40;1.30;;;19.40;99.90;;;;;;5080619;28;20080;-82
2023/07/27 09:14:20;;;;;;;1.17;0.98;;;19.40;99.90;;;;;;5078053;28;20024;-83
2023/07/27 09:16:47;;;;;;;2.35;1.10;;;19.40;99.90;;;;;;5062421;28;20025;-83
2023/07/27 09:19:15;;;;;;;1.38;1.00;;;19.50;99.90;;;;;;5021926;28;20048;-81
2023/07/27 09:21:44;;;;;;;2.22;1.30;;;19.40;99.90;;;;;;5056619;28;20036;-81
2023/07/27 09:24:14;;;;;;;1.00;0.90;;;19.50;99.90;;;;;;5075011;28;20483;-82
2023/07/27 09:26:51;;;;;;;1.17;1.00;;;19.40;99.90;;;;;;5040641;28;20028;-82
2023/07/27 09:29:19;;;;;;;1.30;1.20;;;19.50;99.90;;;;;;5056485;28;20040;-82
2023/07/27 09:31:53;;;;;;;1.50;1.27;;;19.50;99.90;;;;;;5074713;28;20037;-82
2023/07/27 09:34:20;;;;;;;1.15;1.00;;;19.50;99.90;;;;;;5040325;28;20031;-82
2023/07/27 09:36:46;;;;;;;1.25;1.15;;;19.50;99.90;;;;;;5056559;28;20028;-82
2023/07/27 09:39:14;;;;;;;1.20;1.10;;;19.50;99.90;;;;;;5056845;28;20152;-82
2023/07/27 09:41:43;;;;;;;1.63;1.27;;;19.50;99.90;;;;;;5039820;28;20548;-82
2023/07/27 09:44:16;;;;;;;1.50;1.40;;;19.60;99.90;;;;;;5056416;28;20418;-82
2023/07/27 09:46:43;;;;;;;1.63;1.40;;;19.60;99.90;;;;;;5074429;28;20025;-82
2023/07/27 09:49:09;;;;;;;5.15;1.77;;;19.70;99.90;;;;;;5073794;28;20105;-82
2023/07/27 09:51:35;;;;;;;2.00;1.90;;;19.60;99.90;;;;;;5056261;28;20123;-82
2023/07/27 09:54:01;;;;;;;2.05;1.95;;;19.70;99.90;;;;;;5056332;28;20025;-82
2023/07/27 09:56:28;;;;;;;1.80;1.70;;;19.70;99.90;;;;;;5056326;28;20025;-83
2023/07/27 09:58:54;;;;;;;6.03;2.60;;;19.60;99.90;;;;;;5039587;28;20091;-82
2023/07/27 10:01:19;;;;;;;2.55;1.60;;;19.60;99.90;;;;;;5039640;28;20379;-82
2023/07/27 10:03:46;;;;;;;3.70;1.95;;;19.70;99.90;;;;;;5023114;28;20388;-82
2023/07/27 10:06:15;;;;;;;1.60;1.50;;;19.70;99.90;;;;;;5039380;28;20025;-82
2023/07/27 10:08:42;;;;;;;2.22;2.00;;;19.70;99.90;;;;;;5055977;28;20035;-82
2023/07/27 10:11:08;;;;;;;2.03;1.92;;;19.70;99.90;;;;;;5039206;28;20487;-82
2023/07/27 10:13:43;;;;;;;2.30;2.10;;;19.70;99.90;;;;;;5073996;28;20032;-82
2023/07/27 10:16:16;;;;;;;2.45;2.15;;;19.70;99.90;;;;;;5073852;28;20170;-82
2023/07/27 10:18:45;;;;;;;1.98;1.77;;;19.70;99.90;;;;;;5073609;28;20044;-82
2023/07/27 10:21:24;;;;;;;1.80;1.70;;;19.80;99.90;;;;;;5055506;28;20024;-82
2023/07/27 10:23:55;;;;;;;2.42;1.90;;;19.80;99.90;;;;;;5022693;28;20039;-82
2023/07/27 10:26:41;;;;;;;2.00;1.90;;;19.80;99.90;;;;;;5055634;28;20021;-82
2023/07/27 10:29:21;;;;;;;2.35;2.15;;;19.80;99.90;;;;;;5073599;28;20028;-82
2023/07/27 10:32:08;;;;;;;2.10;1.90;;;19.70;99.90;;;;;;5055988;28;20024;-82
2023/07/27 10:34:35;;;;;;;1.88;1.77;;;19.70;99.90;;;;;;5073863;28;20020;-82
2023/07/27 10:37:21;;;;;;;2.20;2.00;;;19.80;99.90;;;;;;5055946;28;20055;-82
2023/07/27 10:39:51;;;;;;;2.40;2.20;;;19.70;99.90;;;;;;5055629;28;20032;-82
2023/07/27 10:42:23;;;;;;;3.03;2.05;;;19.80;99.90;;;;;;5055395;28;20028;-81
2023/07/27 10:44:57;;;;;;;2.20;2.10;;;19.90;99.90;;;;;;5055428;28;20024;-82
2023/07/27 10:47:30;;;;;;;2.13;1.92;;;19.90;99.90;;;;;;5056189;28;20029;-82
2023/07/27 10:49:57;;;;;;;2.20;2.00;;;19.90;99.90;;;;;;5056763;28;20037;-82
2023/07/27 10:52:24;;;;;;;2.78;2.50;;;19.90;99.90;;;;;;5057059;28;20031;-82
2023/07/27 10:54:51;;;;;;;2.20;1.92;;;19.90;99.90;;;;;;5060062;28;20044;-81
2023/07/27 10:57:18;;;;;;;1.80;1.70;;;19.90;99.90;;;;;;5076277;28;20109;-81
2023/07/27 10:59:46;;;;;;;2.70;1.63;;;19.90;99.90;;;;;;5063733;28;20013;-81
2023/07/27 11:02:22;;;;;;;1.90;1.80;;;19.90;99.90;;;;;;5065514;28;20072;-82
2023/07/27 11:04:58;;;;;;;2.65;2.45;;;19.90;99.90;;;;;;5067476;28;20021;-81
2023/07/27 11:07:35;;;;;;;2.30;2.10;;;19.90;99.90;;;;;;5081963;28;20050;-82
2023/07/27 11:10:12;;;;;;;2.50;2.30;;;19.90;99.90;;;;;;5088894;28;20419;-81
2023/07/27 11:13:04;;;;;;;2.08;1.95;;;19.90;99.90;;;;;;5059883;28;20028;-81
2023/07/27 11:15:30;;;;;;;3.10;2.53;;;20.00;99.90;;;;;;5037998;28;20068;-81
2023/07/27 11:17:59;;;;;;;2.33;2.13;;;20.00;99.90;;;;;;5076866;28;20087;-81
2023/07/27 11:20:28;;;;;;;2.42;2.22;;;20.10;99.90;;;;;;5077265;28;20025;-81
2023/07/27 11:22:56;;;;;;;2.30;2.10;;;20.10;99.90;;;;;;5059078;28;20036;-81
2023/07/27 11:25:23;;;;;;;2.22;2.03;;;20.10;99.90;;;;;;5059147;28;20023;-82
2023/07/27 11:27:49;;;;;;;2.22;2.03;;;20.10;99.90;;;;;;5042861;28;20028;-81
2023/07/27 11:30:17;;;;;;;1.90;1.80;;;20.10;99.90;;;;;;5076924;28;20028;-82
2023/07/27 11:32:58;;;;;;;2.03;1.80;;;20.10;99.90;;;;;;5059062;28;20032;-81
2023/07/27 11:35:23;;;;;;;1.90;1.80;;;20.20;99.90;;;;;;5042749;28;20058;-81
2023/07/27 11:37:49;;;;;;;1.80;1.70;;;20.20;99.90;;;;;;5025832;28;20028;-81
2023/07/27 11:40:19;;;;;;;3.13;1.92;;;20.20;99.90;;;;;;5042102;28;20039;-81
2023/07/27 11:42:45;;;;;;;1.63;1.50;;;20.20;99.90;;;;;;5042313;28;20032;-81
2023/07/27 11:45:11;;;;;;;1.80;1.60;;;20.20;99.90;;;;;;5058754;28;20032;-81
2023/07/27 11:47:38;;;;;;;2.50;1.80;;;20.20;99.90;;;;;;5076650;28;20029;-81
2023/07/27 11:50:08;;;;;;;1.98;1.88;;;20.20;99.90;;;;;;5058665;28;20029;-81
2023/07/27 11:52:37;;;;;;;1.70;1.60;;;20.20;99.90;;;;;;5059446;28;20029;-81
2023/07/27 11:55:03;;;;;;;1.73;1.63;;;20.20;99.90;;;;;;5058396;28;20077;-81
2023/07/27 11:57:30;;;;;;;3.28;2.20;;;20.20;99.90;;;;;;5042211;28;20107;-81
2023/07/27 12:00:14;;;;;;;1.92;1.83;;;20.30;99.90;;;;;;5076312;28;20052;-81
2023/07/27 12:02:50;;;;;;;2.83;1.73;;;20.30;99.90;;;;;;5076752;28;20029;-81
2023/07/27 12:05:21;;;;;;;1.90;1.65;;;20.30;99.90;;;;;;5058555;28;20108;-81
2023/07/27 12:07:50;;;;;;;1.55;1.40;;;20.40;99.90;;;;;;5042294;28;20106;-81
2023/07/27 12:10:17;;;;;;;1.63;1.52;;;20.40;99.90;;;;;;5076265;28;20024;-81
2023/07/27 12:13:01;;;;;;;1.70;1.60;;;20.40;99.90;;;;;;5075723;28;20023;-81
2023/07/27 12:15:31;;;;;;;2.10;1.90;;;20.40;99.90;;;;;;5042059;28;20035;-81
2023/07/27 12:18:01;;;;;;;2.70;2.30;;;20.40;99.90;;;;;;5054536;28;20102;-81
2023/07/27 12:20:29;;;;;;;2.30;2.10;;;20.40;99.90;;;;;;5055177;28;20025;-81
2023/07/27 12:22:57;;;;;;;3.60;2.05;;;20.40;99.90;;;;;;5038862;28;20041;-81
2023/07/27 12:25:25;;;;;;;2.40;2.20;;;20.40;99.90;;;;;;5056104;28;20152;-82
2023/07/27 12:27:50;;;;;;;2.30;2.10;;;20.40;99.90;;;;;;5055114;28;20021;-81
2023/07/27 12:30:16;;;;;;;1.90;1.80;;;20.40;99.90;;;;;;5038387;28;20036;-81
2023/07/27 12:32:41;;;;;;;1.80;1.70;;;20.40;99.90;;;;;;5037889;28;20092;-82
2023/07/27 12:35:08;;;;;;;2.10;1.90;;;20.40;99.90;;;;;;5054454;28;20064;-82
2023/07/27 12:37:34;;;;;;;3.58;1.80;;;20.40;99.90;;;;;;5038293;28;20029;-81
2023/07/27 12:39:59;;;;;;;1.70;1.60;;;20.50;99.90;;;;;;5037981;28;20044;-81
2023/07/27 12:42:25;;;;;;;2.35;1.65;;;20.50;99.90;;;;;;5022242;28;20036;-81
2023/07/27 12:44:51;;;;;;;2.05;1.95;;;20.50;99.90;;;;;;5057224;28;20113;-81
2023/07/27 12:47:17;;;;;;;2.25;2.05;;;20.50;99.90;;;;;;5059435;28;20021;-82
2023/07/27 12:49:43;;;;;;;2.13;1.90;;;20.60;99.90;;;;;;5058927;28;20034;-81